Time;durP1;ratioP1;P1;durP2;ratioP2;P2;SDS_P1;SDS_P2;PMS_P1;PMS_P2;Temp;Humidity;BMP_temperature;BMP_pressure;BME280_temperature;BME280_humidity;BME280_pressure;Samples;Min_cycle;Max_cycle;Signal;HPM_P1;HPM_P2
2022/12/03 00:00:21;;;;;;;18.75;9.20;;;;;;;4.26;71.25;97280.81;4873710;28;20215;-75
2022/12/03 00:02:46;;;;;;;16.85;9.55;;;;;;;4.36;70.10;97290.72;4863064;28;20224;-76
2022/12/03 00:05:12;;;;;;;18.77;8.93;;;;;;;4.46;69.65;97287.72;4877730;28;20195;-75
2022/12/03 00:07:37;;;;;;;19.95;10.27;;;;;;;4.20;70.04;97299.66;4848187;29;20339;-76
2022/12/03 00:10:03;;;;;;;18.65;9.75;;;;;;;4.35;69.73;97288.31;4869854;28;20203;-75
2022/12/03 00:12:29;;;;;;;18.08;9.70;;;;;;;4.24;70.33;97287.94;4872053;28;20484;-76
2022/12/03 00:14:54;;;;;;;18.92;9.32;;;;;;;4.49;69.55;97300.22;4876753;28;20216;-76
2022/12/03 00:17:19;;;;;;;19.95;9.77;;;;;;;4.30;69.93;97291.50;4856247;29;20614;-76
2022/12/03 00:19:45;;;;;;;17.08;8.88;;;;;;;4.30;70.23;97294.88;4874570;28;20629;-76
2022/12/03 00:22:10;;;;;;;18.17;8.23;;;;;;;4.30;69.56;97291.50;4878359;28;20251;-76
2022/12/03 00:24:35;;;;;;;17.40;8.18;;;;;;;4.46;69.83;97290.31;4875840;28;20194;-76
2022/12/03 00:27:01;;;;;;;16.80;8.68;;;;;;;4.41;69.01;97292.69;4859576;28;20256;-76
2022/12/03 00:29:26;;;;;;;17.80;8.65;;;;;;;4.52;69.55;97283.53;4873428;28;20199;-76
2022/12/03 00:31:52;;;;;;;16.80;9.13;;;;;;;4.73;69.36;97287.63;4869030;28;20230;-76
2022/12/03 00:34:17;;;;;;;19.38;9.18;;;;;;;4.64;68.92;97284.47;4879444;28;20286;-76
2022/12/03 00:36:42;;;;;;;16.35;8.85;;;;;;;4.50;70.10;97287.09;4869785;28;20185;-76
2022/12/03 00:39:08;;;;;;;18.60;9.65;;;;;;;4.39;69.74;97287.72;4875947;28;20654;-76
2022/12/03 00:41:33;;;;;;;15.18;7.82;;;;;;;4.39;69.49;97284.38;4869283;28;20266;-76
2022/12/03 00:43:58;;;;;;;16.90;8.43;;;;;;;4.44;69.60;97287.91;4873553;28;20252;-76
2022/12/03 00:46:24;;;;;;;16.98;8.68;;;;;;;4.54;69.15;97297.00;4858004;29;20682;-76
2022/12/03 00:48:49;;;;;;;17.75;9.07;;;;;;;4.66;68.74;97285.88;4859845;29;20128;-76
2022/12/03 00:51:15;;;;;;;16.45;8.65;;;;;;;4.60;68.85;97296.22;4874269;28;20194;-76
2022/12/03 00:53:40;;;;;;;15.25;9.27;;;;;;;4.59;69.01;97295.44;4858737;28;20283;-76
2022/12/03 00:56:06;;;;;;;15.90;8.68;;;;;;;4.52;69.08;97289.47;4877773;28;20204;-76
2022/12/03 00:58:31;;;;;;;18.70;8.90;;;;;;;4.43;68.88;97285.53;4876836;28;20192;-76
2022/12/03 01:00:57;;;;;;;14.75;7.70;;;;;;;4.57;68.63;97289.66;4873449;28;20263;-76
2022/12/03 01:03:22;;;;;;;14.65;7.60;;;;;;;4.52;68.47;97299.78;4871758;28;20170;-75
2022/12/03 01:05:47;;;;;;;14.38;7.60;;;;;;;4.64;68.91;97297.38;4876508;28;20204;-76
2022/12/03 01:08:13;;;;;;;16.23;7.53;;;;;;;4.38;68.79;97293.09;4873302;28;20707;-75
2022/12/03 01:10:38;;;;;;;13.35;7.03;;;;;;;4.43;69.59;97291.47;4873262;28;20231;-75
2022/12/03 01:13:03;;;;;;;11.65;7.07;;;;;;;4.50;69.50;97291.47;4857496;29;20291;-76
2022/12/03 01:15:29;;;;;;;16.50;7.93;;;;;;;4.30;69.80;97292.31;4861740;29;20716;-76
2022/12/03 01:17:54;;;;;;;16.05;7.80;;;;;;;4.09;70.19;97301.03;4869071;28;20195;-75
2022/12/03 01:20:19;;;;;;;16.60;8.57;;;;;;;4.16;70.26;97303.63;4881019;28;20212;-75
2022/12/03 01:22:45;;;;;;;15.18;7.35;;;;;;;4.16;70.39;97303.63;4874244;28;20165;-76
2022/12/03 01:25:10;;;;;;;17.52;7.78;;;;;;;4.07;70.53;97305.59;4878003;28;20212;-76
2022/12/03 01:27:36;;;;;;;28.15;9.18;;;;;;;4.16;70.10;97308.75;4873078;28;20210;-76
2022/12/03 01:30:01;;;;;;;24.02;9.20;;;;;;;3.86;71.54;97304.03;4855162;29;20039;-75
2022/12/03 01:32:26;;;;;;;25.85;9.32;;;;;;;3.81;71.83;97308.97;4863114;29;20105;-76
2022/12/03 01:34:53;;;;;;;18.10;8.07;;;;;;;4.15;70.46;97307.19;4859107;29;20219;-76
2022/12/03 01:37:21;;;;;;;18.65;9.30;;;;;;;4.18;71.15;97306.00;4842071;28;20259;-76
2022/12/03 01:39:46;;;;;;;37.08;10.05;;;;;;;4.24;70.17;97312.94;4857739;28;20268;-75
2022/12/03 01:42:20;;;;;;;23.85;8.95;;;;;;;4.39;70.19;97317.88;4870556;28;20291;-75
2022/12/03 01:44:45;;;;;;;37.80;9.98;;;;;;;4.07;71.11;97317.69;4870605;28;20280;-76
2022/12/03 01:47:17;;;;;;;24.52;9.93;;;;;;;4.44;70.21;97328.38;4871268;28;20283;-76
2022/12/03 01:50:13;;;;;;;35.40;10.48;;;;;;;4.32;70.29;97326.41;4876241;28;20184;-76
2022/12/03 01:52:39;;;;;;;33.03;10.25;;;;;;;4.31;70.16;97329.19;4853308;29;20208;-76
2022/12/03 01:55:11;;;;;;;41.05;10.80;;;;;;;4.39;69.83;97325.63;4873323;28;20232;-76
2022/12/03 01:57:40;;;;;;;26.52;9.73;;;;;;;4.46;69.90;97327.19;4856052;28;20248;-75
2022/12/03 02:00:13;;;;;;;21.63;8.63;;;;;;;4.53;69.45;97322.00;4862066;28;21453;-75
2022/12/03 02:02:38;;;;;;;65.75;12.55;;;;;;;4.20;70.62;97328.00;4868888;28;20219;-77
2022/12/03 02:05:31;;;;;;;28.98;9.98;;;;;;;4.59;69.86;97325.56;4865122;28;20156;-77
2022/12/03 02:07:57;;;;;;;34.53;10.45;;;;;;;4.36;70.22;97326.00;4858736;29;20250;-76
2022/12/03 02:10:25;;;;;;;99.03;14.68;;;;;;;4.11;70.83;97330.00;4867241;29;20286;-76
2022/12/03 02:12:57;;;;;;;48.05;10.02;;;;;;;4.25;70.22;97325.63;4869595;28;20244;-77
2022/12/03 02:15:23;;;;;;;78.88;13.00;;;;;;;4.10;70.62;97323.25;4867880;29;20274;-77
2022/12/03 02:17:49;;;;;;;62.47;12.73;;;;;;;4.25;70.41;97330.78;4877619;28;20304;-76
2022/12/03 02:20:14;;;;;;;87.88;14.00;;;;;;;4.06;70.00;97326.41;4879992;28;20201;-77
2022/12/03 02:23:09;;;;;;;76.25;14.93;;;;;;;4.24;70.55;97330.97;4875971;28;20164;-77
2022/12/03 02:25:34;;;;;;;185.30;22.90;;;;;;;3.96;71.64;97324.25;4844090;29;20239;-77
2022/12/03 02:28:00;;;;;;;44.47;10.88;;;;;;;4.23;70.68;97321.66;4863282;28;20677;-76
2022/12/03 02:30:27;;;;;;;70.38;12.85;;;;;;;4.26;70.44;97324.63;4883930;28;20425;-77
2022/12/03 02:32:53;;;;;;;76.85;12.70;;;;;;;4.13;70.86;97322.06;4863581;28;20270;-77
2022/12/03 02:35:20;;;;;;;119.20;19.80;;;;;;;3.96;71.50;97331.16;4884092;28;20214;-76
2022/12/03 02:37:48;;;;;;;60.08;12.73;;;;;;;4.02;70.87;97320.09;4865518;29;20640;-76
2022/12/03 02:40:19;;;;;;;153.13;18.00;;;;;;;3.90;71.25;97317.31;4876711;28;20200;-76
2022/12/03 02:42:45;;;;;;;111.90;16.27;;;;;;;3.90;71.66;97314.72;4869720;28;20195;-77
2022/12/03 02:45:17;;;;;;;153.55;18.65;;;;;;;3.93;71.50;97320.28;4869687;28;20713;-77
2022/12/03 02:47:45;;;;;;;51.13;12.70;;;;;;;4.12;70.66;97315.31;4857197;29;20187;-77
2022/12/03 02:50:14;;;;;;;89.28;16.13;;;;;;;4.22;70.40;97320.88;4875405;28;20286;-77
2022/12/03 02:52:41;;;;;;;52.20;12.05;;;;;;;4.15;70.29;97321.84;4872193;28;20246;-77
2022/12/03 02:55:07;;;;;;;47.50;11.65;;;;;;;4.29;70.59;97319.06;4873595;28;20207;-76
2022/12/03 02:57:33;;;;;;;92.70;18.27;;;;;;;4.27;69.43;97323.63;4874346;28;20188;-77
2022/12/03 02:59:59;;;;;;;92.55;16.35;;;;;;;4.22;70.35;97320.88;4872150;28;20642;-76
2022/12/03 03:02:27;;;;;;;103.90;15.65;;;;;;;4.11;70.53;97324.84;4873579;28;20207;-77
2022/12/03 03:04:53;;;;;;;121.97;18.58;;;;;;;3.94;70.95;97318.47;4877018;28;20168;-77
2022/12/03 03:07:19;;;;;;;45.28;10.90;;;;;;;4.15;71.47;97320.09;4863096;29;20195;-77
2022/12/03 03:09:44;;;;;;;80.10;13.68;;;;;;;4.19;70.38;97318.69;4873822;28;20230;-76
2022/12/03 03:12:10;;;;;;;61.20;14.18;;;;;;;4.18;70.80;97330.00;4863037;28;20031;-76
2022/12/03 03:14:35;;;;;;;50.42;13.30;;;;;;;4.18;70.04;97324.84;4867909;28;20238;-77
2022/12/03 03:17:00;;;;;;;151.68;18.88;;;;;;;3.89;71.23;97320.84;4881520;28;20113;-77
2022/12/03 03:19:26;;;;;;;125.32;17.45;;;;;;;3.95;71.46;97314.94;4877967;28;20289;-77
2022/12/03 03:21:52;;;;;;;67.95;13.10;;;;;;;4.06;71.41;97313.53;4865722;28;20169;-77
2022/12/03 03:24:18;;;;;;;117.18;17.20;;;;;;;3.88;71.52;97320.06;4879103;28;20160;-77
2022/12/03 03:26:44;;;;;;;87.15;15.80;;;;;;;4.16;71.43;97316.50;4865564;28;20240;-77
2022/12/03 03:29:10;;;;;;;102.35;16.92;;;;;;;4.11;71.23;97318.88;4861202;28;20327;-77
2022/12/03 03:31:35;;;;;;;191.30;22.42;;;;;;;4.14;70.88;97308.19;4856035;29;20192;-76
2022/12/03 03:34:01;;;;;;;89.93;17.23;;;;;;;4.00;70.67;97309.19;4876875;28;20368;-77
2022/12/03 03:36:26;;;;;;;64.07;13.90;;;;;;;3.90;71.57;97302.63;4874036;28;20706;-77
2022/12/03 03:38:52;;;;;;;74.22;15.48;;;;;;;3.90;71.65;97302.63;4870176;28;20376;-76
2022/12/03 03:41:18;;;;;;;117.55;17.98;;;;;;;3.99;71.37;97303.22;4868692;28;20186;-77
2022/12/03 03:43:44;;;;;;;127.15;18.20;;;;;;;4.11;71.22;97311.16;4865681;28;20204;-77
2022/12/03 03:46:10;;;;;;;66.65;15.02;;;;;;;4.12;70.74;97302.44;4874523;28;20251;-77
2022/12/03 03:48:36;;;;;;;58.47;13.13;;;;;;;4.07;70.62;97307.41;4870166;28;20324;-77
2022/12/03 03:51:07;;;;;;;60.30;13.85;;;;;;;4.11;71.07;97298.25;4857003;29;20306;-76
2022/12/03 03:53:32;;;;;;;56.72;13.57;;;;;;;4.23;70.44;97296.69;4871216;28;20785;-76
2022/12/03 03:55:58;;;;;;;58.50;15.15;;;;;;;4.38;69.55;97306.75;4876735;28;20381;-77
2022/12/03 03:58:23;;;;;;;29.88;11.70;;;;;;;4.35;70.40;97298.63;4868889;28;20611;-76
2022/12/03 04:00:49;;;;;;;97.55;17.30;;;;;;;4.35;70.30;97299.41;4858509;29;20196;-76
2022/12/03 04:03:14;;;;;;;40.55;12.05;;;;;;;4.26;70.30;97298.84;4857293;28;20191;-77
2022/12/03 04:05:39;;;;;;;32.25;11.35;;;;;;;4.19;70.66;97290.34;4865084;29;20626;-77
2022/12/03 04:08:05;;;;;;;28.67;11.20;;;;;;;4.31;70.39;97300.81;4874644;28;20207;-76
2022/12/03 04:13:14;;;;;;;34.25;10.75;;;;;;;4.38;69.84;97298.25;4880797;28;20637;-77
2022/12/03 04:15:39;;;;;;;30.00;11.85;;;;;;;4.11;70.54;97295.69;4886736;28;20208;-76
2022/12/03 04:20:49;;;;;;;42.30;12.20;;;;;;;4.12;70.78;97285.19;4875115;28;20186;-77
2022/12/03 04:23:15;;;;;;;25.63;11.00;;;;;;;4.09;71.11;97295.09;4884183;28;20348;-76
2022/12/03 04:36:36;;;;;;;27.90;11.07;;;;;;;4.39;69.66;97274.06;4867389;29;20277;-76
2022/12/03 04:39:02;;;;;;;29.15;12.00;;;;;;;4.40;69.47;97280.78;4868913;28;20678;-77
2022/12/03 04:41:27;;;;;;;26.90;10.75;;;;;;;4.22;70.13;97279.63;4871239;28;20247;-76
2022/12/03 04:46:36;;;;;;;30.40;12.60;;;;;;;4.23;70.69;97270.09;4868317;29;20231;-76
2022/12/03 04:49:02;;;;;;;25.73;10.55;;;;;;;4.29;69.72;97274.47;4861175;28;20290;-77
2022/12/03 04:51:27;;;;;;;29.98;11.70;;;;;;;4.41;69.78;97269.50;4862307;29;20505;-76
2022/12/03 04:53:52;;;;;;;31.50;12.65;;;;;;;4.45;70.04;97273.22;4861129;28;20253;-77
2022/12/03 04:56:18;;;;;;;40.08;13.05;;;;;;;4.41;69.58;97272.06;4870739;28;20193;-76
2022/12/03 04:58:43;;;;;;;39.13;17.08;;;;;;;4.39;69.68;97276.63;4858687;29;20701;-77
2022/12/03 05:01:08;;;;;;;43.20;16.85;;;;;;;4.36;69.61;97277.03;4862347;28;20754;-76
2022/12/03 05:03:34;;;;;;;36.40;14.95;;;;;;;4.38;69.88;97278.41;4857547;29;20222;-76
2022/12/03 05:05:59;;;;;;;45.20;17.45;;;;;;;4.40;69.50;97275.63;4855739;28;20300;-77
2022/12/03 05:08:24;;;;;;;37.38;13.10;;;;;;;4.46;70.07;97277.41;4858830;29;20272;-76
2022/12/03 05:10:50;;;;;;;33.63;11.65;;;;;;;4.27;69.55;97277.25;4885520;28;20286;-76
2022/12/03 05:13:15;;;;;;;27.80;12.30;;;;;;;4.28;70.14;97273.69;4879754;28;20139;-77
2022/12/03 05:15:40;;;;;;;29.58;12.48;;;;;;;4.42;70.02;97278.78;4865918;28;20223;-76
2022/12/03 05:18:06;;;;;;;25.17;11.10;;;;;;;4.43;69.44;97272.66;4879317;28;20165;-77
2022/12/03 05:20:40;;;;;;;34.72;12.82;;;;;;;4.17;70.50;97276.88;4865019;29;20294;-77
2022/12/03 05:23:07;;;;;;;25.38;11.18;;;;;;;4.25;70.53;97273.25;4882644;28;20215;-77
2022/12/03 05:25:32;;;;;;;32.72;12.57;;;;;;;4.26;70.17;97269.72;4884470;28;20685;-76
2022/12/03 05:27:57;;;;;;;30.05;12.18;;;;;;;4.23;70.80;97276.06;4878016;28;20305;-76
2022/12/03 05:30:23;;;;;;;27.73;11.95;;;;;;;4.22;70.21;97273.69;4881044;28;20631;-76
2022/12/03 05:32:48;;;;;;;30.30;11.60;;;;;;;4.03;70.69;97273.50;4876125;28;20275;-76
2022/12/03 05:35:14;;;;;;;34.85;12.88;;;;;;;3.93;71.01;97268.75;4868867;28;20264;-76
2022/12/03 05:37:39;;;;;;;27.38;11.20;;;;;;;4.23;70.56;97267.53;4878628;28;20505;-76
2022/12/03 05:40:05;;;;;;;33.60;12.85;;;;;;;4.00;71.03;97263.59;4876359;28;20166;-77
2022/12/03 05:45:15;;;;;;;33.38;12.20;;;;;;;4.16;70.31;97259.81;4867001;28;20178;-77
2022/12/03 05:47:40;;;;;;;29.73;11.23;;;;;;;4.19;70.58;97256.84;4873012;28;20290;-76
2022/12/03 05:50:06;;;;;;;52.90;13.55;;;;;;;4.10;70.72;97265.78;4874602;28;20204;-77
2022/12/03 05:52:31;;;;;;;44.47;13.88;;;;;;;4.15;70.56;97260.00;4851482;29;20706;-76
2022/12/03 05:54:57;;;;;;;38.97;13.93;;;;;;;4.08;70.90;97267.75;4880456;28;20829;-76
2022/12/03 05:57:22;;;;;;;34.70;12.45;;;;;;;4.26;70.04;97259.41;4869026;28;20215;-77
2022/12/03 05:59:47;;;;;;;73.45;14.52;;;;;;;4.07;71.29;97261.00;4869409;28;20158;-76
2022/12/03 06:02:13;;;;;;;117.20;16.88;;;;;;;3.98;70.80;97268.16;4878138;28;20444;-77
2022/12/03 06:04:38;;;;;;;55.15;15.38;;;;;;;4.23;70.77;97264.94;4870274;28;20272;-76
2022/12/03 06:07:03;;;;;;;65.95;15.57;;;;;;;4.31;69.68;97272.47;4876112;28;20244;-75
2022/12/03 06:09:29;;;;;;;105.55;18.38;;;;;;;4.01;70.76;97277.25;4879054;28;20227;-76
2022/12/03 06:11:54;;;;;;;68.25;16.08;;;;;;;4.12;70.96;97281.81;4877287;28;20696;-77
2022/12/03 06:14:20;;;;;;;43.67;13.60;;;;;;;4.27;69.63;97282.41;4870791;28;20278;-76
2022/12/03 06:16:45;;;;;;;74.18;16.45;;;;;;;4.11;70.56;97280.22;4866235;28;20267;-76
2022/12/03 06:19:11;;;;;;;82.18;20.67;;;;;;;4.01;70.92;97283.22;4856958;29;20227;-76
2022/12/03 06:21:36;;;;;;;71.43;19.70;;;;;;;4.04;71.01;97274.28;4869359;28;20641;-77
2022/12/03 06:24:01;;;;;;;68.07;15.93;;;;;;;4.06;70.64;97274.88;4879603;28;20219;-77
2022/12/03 06:26:28;;;;;;;94.07;20.35;;;;;;;4.13;71.15;97275.69;4880159;28;20750;-76
2022/12/03 06:28:54;;;;;;;76.00;17.85;;;;;;;4.17;70.58;97276.88;4842980;28;20281;-76
2022/12/03 06:31:19;;;;;;;55.00;17.02;;;;;;;4.14;70.84;97269.53;4868985;28;20283;-76
2022/12/03 06:33:45;;;;;;;105.30;20.13;;;;;;;3.78;71.62;97264.81;4865333;29;20156;-76
2022/12/03 06:36:10;;;;;;;99.95;21.05;;;;;;;3.91;70.89;97259.66;4883266;28;20214;-76
2022/12/03 06:38:35;;;;;;;70.88;18.05;;;;;;;4.10;71.17;97250.31;4875404;28;20230;-76
2022/12/03 06:41:00;;;;;;;73.88;20.42;;;;;;;4.10;70.74;97248.53;4872321;28;20180;-76
2022/12/03 06:43:26;;;;;;;138.32;27.52;;;;;;;4.03;70.92;97249.53;4868787;28;20228;-76
2022/12/03 06:45:51;;;;;;;114.18;19.45;;;;;;;3.89;71.47;97254.69;4852309;29;20211;-77
2022/12/03 06:48:17;;;;;;;49.88;17.25;;;;;;;4.10;71.30;97250.31;4858528;28;20185;-77
2022/12/03 06:50:42;;;;;;;60.58;17.52;;;;;;;4.13;70.50;97265.38;4873563;28;20267;-76
2022/12/03 06:53:07;;;;;;;87.70;20.15;;;;;;;4.21;70.19;97262.56;4853822;28;20215;-76
2022/12/03 06:55:33;;;;;;;52.58;19.17;;;;;;;4.05;70.94;97268.16;4874995;28;20376;-76
2022/12/03 06:58:13;;;;;;;95.45;21.25;;;;;;;4.00;71.52;97265.38;4858983;28;20216;-76
2022/12/03 07:00:39;;;;;;;67.00;16.75;;;;;;;4.15;70.44;97263.38;4871313;28;20647;-76
2022/12/03 07:03:04;;;;;;;59.45;16.83;;;;;;;4.28;69.88;97272.88;4871681;28;20212;-76
2022/12/03 07:05:29;;;;;;;59.05;17.98;;;;;;;4.43;69.68;97276.00;4873161;28;20343;-76
2022/12/03 07:07:55;;;;;;;57.42;19.17;;;;;;;4.43;70.10;97280.38;4871958;28;20302;-76
2022/12/03 07:10:21;;;;;;;51.75;17.27;;;;;;;4.42;69.75;97281.38;4850990;29;20169;-76
2022/12/03 07:12:46;;;;;;;54.60;18.10;;;;;;;4.39;69.91;97279.22;4877077;28;20329;-77
2022/12/03 07:15:11;;;;;;;64.65;21.73;;;;;;;4.41;69.42;97272.06;4863124;28;20583;-76
2022/12/03 07:17:37;;;;;;;48.90;17.25;;;;;;;4.44;69.48;97284.56;4874120;28;20323;-77
2022/12/03 07:20:03;;;;;;;50.63;17.45;;;;;;;4.49;69.87;97279.59;4866593;28;20212;-76
2022/12/03 07:22:29;;;;;;;57.67;17.17;;;;;;;4.54;68.45;97286.69;4846886;29;20615;-76
2022/12/03 07:24:54;;;;;;;54.72;17.20;;;;;;;4.57;69.89;97289.66;4857090;29;20380;-76
2022/12/03 07:27:19;;;;;;;52.17;16.95;;;;;;;4.26;70.29;97283.38;4858283;29;20208;-76
2022/12/03 07:29:45;;;;;;;36.17;14.98;;;;;;;4.49;69.78;97284.75;4870192;28;20193;-76
2022/12/03 07:32:10;;;;;;;46.97;17.90;;;;;;;4.43;69.29;97277.81;4870254;28;20077;-76
2022/12/03 07:34:36;;;;;;;50.70;21.48;;;;;;;4.38;69.78;97275.03;4858601;29;20192;-76
2022/12/03 07:37:01;;;;;;;55.90;20.02;;;;;;;4.42;70.20;97278.78;4843234;28;20191;-77
2022/12/03 07:39:26;;;;;;;48.88;21.90;;;;;;;4.46;69.67;97285.16;4854016;29;20308;-75
2022/12/03 07:41:52;;;;;;;56.55;22.55;;;;;;;4.49;68.98;97279.59;4851313;29;20247;-76
2022/12/03 07:44:17;;;;;;;54.25;18.88;;;;;;;4.37;70.25;97282.00;4852294;29;20206;-76
2022/12/03 07:46:42;;;;;;;53.33;19.48;;;;;;;4.22;69.87;97284.78;4870400;28;20280;-76
2022/12/03 07:49:08;;;;;;;47.30;16.90;;;;;;;4.52;69.58;97288.69;4856397;29;20335;-76
2022/12/03 07:51:33;;;;;;;56.83;22.52;;;;;;;4.62;69.22;97292.41;4872667;28;20202;-76
2022/12/03 07:54:00;;;;;;;72.70;22.63;;;;;;;4.42;69.71;97289.09;4859113;29;20364;-76
2022/12/03 07:56:26;;;;;;;50.33;20.63;;;;;;;4.33;70.88;97285.94;4874248;28;20309;-76
2022/12/03 07:58:51;;;;;;;52.60;19.38;;;;;;;4.41;70.27;97292.69;4853398;29;20180;-77
2022/12/03 08:01:16;;;;;;;65.28;26.08;;;;;;;4.38;70.07;97293.09;4855119;29;20200;-77
2022/12/03 08:03:42;;;;;;;54.65;21.73;;;;;;;4.37;69.93;97283.75;4875942;28;20187;-76
2022/12/03 08:06:08;;;;;;;60.67;23.80;;;;;;;4.46;69.96;97288.50;4852275;29;20282;-76
2022/12/03 08:08:33;;;;;;;68.40;23.75;;;;;;;4.41;70.08;97305.56;4866881;28;20248;-76
2022/12/03 08:11:00;;;;;;;74.75;22.00;;;;;;;4.28;70.68;97303.81;4861336;28;20657;-76
2022/12/03 08:13:26;;;;;;;50.92;20.60;;;;;;;4.31;69.61;97303.41;4875413;28;20347;-77
2022/12/03 08:15:51;;;;;;;53.30;20.10;;;;;;;4.23;70.93;97296.69;4858198;29;20271;-76
2022/12/03 08:18:19;;;;;;;59.70;21.42;;;;;;;4.35;70.11;97283.16;4878414;28;20773;-76
2022/12/03 08:20:46;;;;;;;54.65;20.42;;;;;;;4.24;70.20;97282.78;4880148;28;20299;-76
2022/12/03 08:23:20;;;;;;;52.50;18.17;;;;;;;4.30;69.99;97287.16;4864617;28;20207;-77
2022/12/03 08:25:46;;;;;;;54.70;19.98;;;;;;;4.29;70.16;97274.47;4871761;28;20589;-76
2022/12/03 08:28:17;;;;;;;66.82;24.63;;;;;;;4.51;69.63;97277.59;4850244;28;20231;-76
2022/12/03 08:30:44;;;;;;;59.20;20.40;;;;;;;4.45;69.83;97276.59;4862101;28;20212;-77
2022/12/03 08:33:34;;;;;;;55.33;19.80;;;;;;;4.45;70.33;97283.53;4876153;28;20283;-76
2022/12/03 08:36:15;;;;;;;55.75;18.27;;;;;;;4.41;70.12;97277.22;4846134;28;20166;-76
2022/12/03 08:38:43;;;;;;;46.92;17.92;;;;;;;4.10;70.90;97276.09;4849595;29;20284;-77
2022/12/03 08:41:14;;;;;;;45.38;19.13;;;;;;;4.35;70.68;97273.66;4869703;28;20174;-76
2022/12/03 08:43:41;;;;;;;49.60;18.13;;;;;;;4.47;69.93;97268.66;4849843;29;20192;-76
2022/12/03 08:46:12;;;;;;;56.92;20.90;;;;;;;4.64;69.69;97272.41;4869825;28;20685;-76
2022/12/03 08:48:37;;;;;;;55.65;20.05;;;;;;;4.45;69.71;97265.50;4868150;28;20197;-77
2022/12/03 08:51:20;;;;;;;47.53;17.73;;;;;;;4.40;70.40;97262.75;4861459;29;20062;-77
2022/12/03 08:53:50;;;;;;;45.47;20.02;;;;;;;4.55;69.88;97259.94;4863914;28;20180;-76
2022/12/03 08:56:20;;;;;;;47.00;18.25;;;;;;;4.32;70.47;97258.59;4862261;28;20648;-77
2022/12/03 08:58:47;;;;;;;50.25;18.92;;;;;;;4.20;70.63;97265.34;4862240;29;20196;-76
2022/12/03 09:01:13;;;;;;;47.78;18.83;;;;;;;4.28;70.62;97267.72;4842191;29;20211;-77
2022/12/03 09:03:44;;;;;;;47.85;17.02;;;;;;;4.44;69.87;97269.09;4858688;29;20666;-76
2022/12/03 09:06:10;;;;;;;58.00;22.40;;;;;;;4.36;69.86;97269.31;4861837;28;20213;-77
2022/12/03 09:08:35;;;;;;;49.50;19.10;;;;;;;4.44;69.54;97263.94;4875268;28;20118;-75
2022/12/03 09:11:00;;;;;;;49.20;18.33;;;;;;;4.45;69.75;97261.13;4875243;28;20211;-76
2022/12/03 09:13:26;;;;;;;48.50;18.90;;;;;;;4.64;69.58;97277.56;4835092;29;20161;-76
2022/12/03 09:15:51;;;;;;;46.03;16.50;;;;;;;4.67;68.99;97274.56;4870704;28;20203;-76
2022/12/03 09:18:16;;;;;;;51.50;19.10;;;;;;;4.46;69.66;97278.19;4871516;28;20051;-76
2022/12/03 09:20:42;;;;;;;51.15;21.45;;;;;;;4.43;70.11;97277.81;4876593;28;20343;-76
2022/12/03 09:23:07;;;;;;;47.58;19.27;;;;;;;4.64;68.77;97277.56;4874635;28;20661;-76
2022/12/03 09:25:33;;;;;;;51.50;18.15;;;;;;;4.78;69.64;97285.22;4876141;28;20215;-76
2022/12/03 09:27:58;;;;;;;43.30;18.08;;;;;;;4.62;69.41;97279.53;4875909;28;20291;-77
2022/12/03 09:30:23;;;;;;;43.45;16.73;;;;;;;4.73;69.25;97285.06;4856909;29;20091;-75
2022/12/03 09:32:49;;;;;;;42.30;17.40;;;;;;;4.81;69.06;97282.25;4871349;28;20736;-76
2022/12/03 09:35:14;;;;;;;45.78;17.83;;;;;;;4.79;69.04;97284.25;4852893;29;20705;-76
2022/12/03 09:37:40;;;;;;;40.60;16.02;;;;;;;4.77;68.77;97281.88;4872063;28;20300;-76
2022/12/03 09:40:06;;;;;;;42.70;17.55;;;;;;;4.87;68.78;97281.44;4880637;28;20299;-76
2022/12/03 09:42:32;;;;;;;46.33;17.48;;;;;;;4.81;69.01;97282.25;4866834;28;20059;-76
2022/12/03 09:44:57;;;;;;;43.53;19.58;;;;;;;4.77;69.17;97286.25;4867143;28;20268;-76
2022/12/03 09:47:24;;;;;;;35.15;15.30;;;;;;;4.54;68.84;97282.34;4858637;29;20224;-76
2022/12/03 09:49:49;;;;;;;41.10;16.52;;;;;;;4.74;69.43;97271.16;4872997;28;20094;-76
2022/12/03 09:52:25;;;;;;;39.55;16.73;;;;;;;4.76;69.45;97269.97;4857279;29;20687;-77
2022/12/03 09:54:50;;;;;;;45.72;16.88;;;;;;;4.73;68.51;97269.56;4855116;29;20278;-76
2022/12/03 09:57:15;;;;;;;39.22;16.77;;;;;;;4.80;69.47;97270.38;4873931;28;20311;-75
2022/12/03 09:59:41;;;;;;;40.22;16.52;;;;;;;4.83;68.46;97264.78;4869918;28;20296;-76
2022/12/03 10:02:20;;;;;;;44.97;17.30;;;;;;;4.77;68.59;97257.88;4858675;28;20240;-76
2022/12/03 10:04:46;;;;;;;38.53;15.20;;;;;;;4.67;69.38;97251.34;4869029;28;20207;-75
2022/12/03 10:07:12;;;;;;;57.15;17.55;;;;;;;4.60;68.96;97242.84;4864463;28;20247;-76
2022/12/03 10:09:37;;;;;;;42.10;17.63;;;;;;;4.70;69.50;97255.31;4870841;28;20283;-75
2022/12/03 10:12:03;;;;;;;43.92;18.70;;;;;;;4.82;69.02;97252.88;4876912;28;20271;-77
2022/12/03 10:14:28;;;;;;;41.67;17.00;;;;;;;4.66;69.10;97254.94;4872383;28;20106;-76
2022/12/03 10:16:54;;;;;;;44.05;17.95;;;;;;;4.76;69.52;97246.75;4876238;28;20359;-76
2022/12/03 10:19:30;;;;;;;40.83;17.02;;;;;;;4.97;69.54;97244.88;4870216;28;20293;-76
2022/12/03 10:21:56;;;;;;;40.88;17.92;;;;;;;4.87;69.04;97240.16;4859559;28;20191;-77
2022/12/03 10:24:24;;;;;;;40.50;15.70;;;;;;;4.81;69.67;97235.81;4844826;28;20223;-76
2022/12/03 10:26:52;;;;;;;40.20;16.27;;;;;;;4.66;69.78;97236.88;4873043;28;20181;-76
2022/12/03 10:29:24;;;;;;;44.20;17.77;;;;;;;4.81;69.19;97228.06;4858199;29;20255;-76
2022/12/03 10:31:59;;;;;;;43.95;18.30;;;;;;;5.02;69.26;97232.94;4869117;28;20249;-76
2022/12/03 10:34:29;;;;;;;46.22;18.55;;;;;;;5.04;68.53;97235.31;4876484;28;20211;-76
2022/12/03 10:37:20;;;;;;;39.60;17.35;;;;;;;4.83;68.99;97223.50;4857529;29;20579;-76
2022/12/03 10:39:57;;;;;;;41.05;16.95;;;;;;;4.87;69.46;97219.53;4841621;29;20256;-77
2022/12/03 10:42:25;;;;;;;45.63;16.65;;;;;;;4.65;69.55;97222.38;4852780;29;20270;-76
2022/12/03 10:45:08;;;;;;;47.55;18.02;;;;;;;4.83;69.13;97221.72;4866611;28;20365;-76
2022/12/03 10:47:33;;;;;;;40.72;17.55;;;;;;;4.69;69.51;97215.03;4856015;29;20233;-77
2022/12/03 10:50:05;;;;;;;45.53;17.52;;;;;;;4.85;69.13;97206.06;4851398;29;20177;-76
2022/12/03 10:52:30;;;;;;;45.58;18.98;;;;;;;4.45;70.04;97207.00;4866134;28;20181;-76
2022/12/03 10:54:56;;;;;;;49.38;19.20;;;;;;;4.71;70.17;97200.13;4857827;29;20725;-76
2022/12/03 10:57:22;;;;;;;48.22;20.80;;;;;;;4.75;69.61;97195.38;4864502;28;20283;-76
2022/12/03 10:59:48;;;;;;;45.40;15.75;;;;;;;4.82;68.96;97201.28;4836156;29;20668;-77
2022/12/03 11:02:23;;;;;;;41.35;17.27;;;;;;;5.03;68.11;97197.59;4847529;29;20356;-76
2022/12/03 11:04:49;;;;;;;46.42;19.35;;;;;;;4.76;68.92;97189.22;4847594;29;20262;-76
2022/12/03 11:07:16;;;;;;;40.72;15.98;;;;;;;4.84;69.00;97191.56;4866458;28;20230;-77
2022/12/03 11:09:44;;;;;;;40.33;16.02;;;;;;;4.84;68.46;97188.97;4850193;29;20164;-76
2022/12/03 11:12:18;;;;;;;41.15;16.60;;;;;;;5.01;68.43;97192.66;4873545;28;20599;-76
2022/12/03 11:14:49;;;;;;;43.72;17.58;;;;;;;4.92;69.00;97186.16;4855162;29;20230;-76
2022/12/03 11:17:40;;;;;;;42.33;16.15;;;;;;;5.16;69.32;97179.47;4873028;28;20668;-76
2022/12/03 11:20:29;;;;;;;37.95;16.23;;;;;;;5.16;68.10;97186.41;4855353;28;20228;-76
2022/12/03 11:22:56;;;;;;;47.20;20.13;;;;;;;4.97;68.88;97182.94;4851176;28;20212;-75
2022/12/03 11:25:27;;;;;;;37.42;16.42;;;;;;;5.19;68.37;97178.22;4838199;28;20208;-76
2022/12/03 11:28:11;;;;;;;39.38;17.95;;;;;;;5.32;67.63;97179.94;4874134;28;20611;-77
2022/12/03 11:30:57;;;;;;;39.13;16.33;;;;;;;5.25;68.61;97174.81;4858255;28;20270;-76
2022/12/03 11:33:33;;;;;;;38.63;15.73;;;;;;;5.02;68.21;97176.19;4856941;29;20288;-77
2022/12/03 11:36:01;;;;;;;34.50;15.23;;;;;;;4.98;68.44;97185.31;4856065;29;20762;-77
2022/12/03 11:38:36;;;;;;;40.15;16.83;;;;;;;5.10;68.28;97176.91;4870266;28;20335;-77
2022/12/03 11:41:24;;;;;;;51.85;22.38;;;;;;;5.22;68.48;97170.06;4847247;29;20666;-77
2022/12/03 11:43:54;;;;;;;44.05;20.38;;;;;;;5.24;68.01;97168.06;4870786;28;20211;-76
2022/12/03 11:46:38;;;;;;;38.47;17.85;;;;;;;5.22;68.18;97163.13;4875681;28;20276;-77
2022/12/03 11:49:33;;;;;;;37.78;16.88;;;;;;;5.15;68.12;97164.19;4881724;28;20203;-78